sensor_id;sensor_type;location;lat;lon;timestamp;pressure;altitude;pressure_sealevel;temperature;humidity
44198;BME280;30157;55.512;37.764;2023-09-19T00:01:40;100479.50;;;9.88;84.43
44198;BME280;30157;55.512;37.764;2023-09-19T00:04:07;100513.38;;;10.06;84.57
44198;BME280;30157;55.512;37.764;2023-09-19T00:06:36;100486.31;;;9.75;84.97
44198;BME280;30157;55.512;37.764;2023-09-19T00:09:03;100533.19;;;10.01;85.34
44198;BME280;30157;55.512;37.764;2023-09-19T00:11:29;100477.63;;;9.70;85.59
44198;BME280;30157;55.512;37.764;2023-09-19T00:13:57;100515.84;;;9.91;85.86
44198;BME280;30157;55.512;37.764;2023-09-19T00:16:25;100408.19;;;9.35;85.94
44198;BME280;30157;55.512;37.764;2023-09-19T00:18:51;100513.28;;;9.94;86.18
44198;BME280;30157;55.512;37.764;2023-09-19T00:21:18;100529.81;;;10.07;85.93
44198;BME280;30157;55.512;37.764;2023-09-19T00:23:47;100437.75;;;9.57;85.29
44198;BME280;30157;55.512;37.764;2023-09-19T00:26:13;100517.63;;;10.01;85.70
44198;BME280;30157;55.512;37.764;2023-09-19T00:28:41;100494.19;;;9.87;85.39
44198;BME280;30157;55.512;37.764;2023-09-19T00:31:09;100521.91;;;9.96;85.84
44198;BME280;30157;55.512;37.764;2023-09-19T00:33:35;100505.41;;;9.88;86.24
44198;BME280;30157;55.512;37.764;2023-09-19T00:36:02;100493.31;;;9.85;86.39
44198;BME280;30157;55.512;37.764;2023-09-19T00:38:31;100530.69;;;10.12;86.48
44198;BME280;30157;55.512;37.764;2023-09-19T00:40:57;100408.38;;;9.56;86.17
44198;BME280;30157;55.512;37.764;2023-09-19T00:43:25;100351.09;;;9.24;86.36
44198;BME280;30157;55.512;37.764;2023-09-19T00:45:54;100490.94;;;10.10;86.83
44198;BME280;30157;55.512;37.764;2023-09-19T00:48:22;100512.63;;;10.23;87.36
44198;BME280;30157;55.512;37.764;2023-09-19T00:50:48;100529.28;;;10.45;87.63
44198;BME280;30157;55.512;37.764;2023-09-19T00:53:21;100520.63;;;10.46;87.02
44198;BME280;30157;55.512;37.764;2023-09-19T00:55:49;100503.22;;;10.34;86.73
44198;BME280;30157;55.512;37.764;2023-09-19T00:58:19;100499.81;;;10.35;86.07
44198;BME280;30157;55.512;37.764;2023-09-19T01:00:48;100440.69;;;9.97;85.70
44198;BME280;30157;55.512;37.764;2023-09-19T01:03:14;100513.63;;;10.37;86.00
44198;BME280;30157;55.512;37.764;2023-09-19T01:05:40;100411.22;;;9.83;86.43
44198;BME280;30157;55.512;37.764;2023-09-19T01:08:08;100490.19;;;10.30;86.57
44198;BME280;30157;55.512;37.764;2023-09-19T01:10:33;100409.53;;;9.91;86.54
44198;BME280;30157;55.512;37.764;2023-09-19T01:18:21;100528.56;;;10.69;87.44
44198;BME280;30157;55.512;37.764;2023-09-19T01:21:03;100536.38;;;10.75;87.90
44198;BME280;30157;55.512;37.764;2023-09-19T01:31:59;100520.78;;;10.71;88.14
44198;BME280;30157;55.512;37.764;2023-09-19T01:34:48;100534.72;;;10.88;87.57
44198;BME280;30157;55.512;37.764;2023-09-19T01:37:18;100458.31;;;10.41;87.28
44198;BME280;30157;55.512;37.764;2023-09-19T01:40:07;100531.28;;;10.89;87.16
44198;BME280;30157;55.512;37.764;2023-09-19T01:45:58;100527.78;;;10.87;87.48
44198;BME280;30157;55.512;37.764;2023-09-19T01:48:41;100409.69;;;10.16;88.30
44198;BME280;30157;55.512;37.764;2023-09-19T01:51:15;100515.63;;;10.77;89.64
44198;BME280;30157;55.512;37.764;2023-09-19T01:54:00;100500.00;;;10.66;90.22
44198;BME280;30157;55.512;37.764;2023-09-19T01:56:59;100503.38;;;10.56;90.58
44198;BME280;30157;55.512;37.764;2023-09-19T01:59:35;100460.75;;;10.21;90.94
44198;BME280;30157;55.512;37.764;2023-09-19T02:02:04;100369.53;;;9.61;91.19
44198;BME280;30157;55.512;37.764;2023-09-19T02:04:34;100460.59;;;10.01;91.93
44198;BME280;30157;55.512;37.764;2023-09-19T02:07:01;100450.13;;;9.89;92.35
44198;BME280;30157;55.512;37.764;2023-09-19T02:09:28;100480.53;;;10.07;92.43
44198;BME280;30157;55.512;37.764;2023-09-19T02:11:54;100480.56;;;10.12;92.46
44198;BME280;30157;55.512;37.764;2023-09-19T02:14:21;100470.19;;;10.12;92.40
44198;BME280;30157;55.512;37.764;2023-09-19T02:16:48;100494.47;;;10.23;92.38
44198;BME280;30157;55.512;37.764;2023-09-19T02:19:15;100489.28;;;10.23;92.42
44198;BME280;30157;55.512;37.764;2023-09-19T02:21:41;100477.06;;;10.09;92.69
44198;BME280;30157;55.512;37.764;2023-09-19T02:24:08;100495.22;;;10.09;92.60
44198;BME280;30157;55.512;37.764;2023-09-19T02:26:34;100477.03;;;10.00;93.34
44198;BME280;30157;55.512;37.764;2023-09-19T02:29:01;100477.91;;;10.02;93.28
44198;BME280;30157;55.512;37.764;2023-09-19T02:31:30;100490.94;;;10.15;92.90
44198;BME280;30157;55.512;37.764;2023-09-19T02:33:57;100483.16;;;10.13;92.96
44198;BME280;30157;55.512;37.764;2023-09-19T02:36:22;100465.56;;;9.73;93.16
44198;BME280;30157;55.512;37.764;2023-09-19T02:38:49;100373.59;;;9.27;93.67
44198;BME280;30157;55.512;37.764;2023-09-19T02:41:15;100449.03;;;9.61;94.18
44198;BME280;30157;55.512;37.764;2023-09-19T02:43:41;100360.47;;;9.11;94.14
44198;BME280;30157;55.512;37.764;2023-09-19T02:46:08;100447.34;;;9.67;94.18
44198;BME280;30157;55.512;37.764;2023-09-19T02:48:34;100467.19;;;9.64;94.68
44198;BME280;30157;55.512;37.764;2023-09-19T02:51:01;100410.72;;;9.30;94.75
44198;BME280;30157;55.512;37.764;2023-09-19T02:53:29;100410.81;;;9.38;94.66
44198;BME280;30157;55.512;37.764;2023-09-19T02:55:56;100371.00;;;9.28;94.42
44198;BME280;30157;55.512;37.764;2023-09-19T02:58:22;100424.03;;;9.67;93.80
44198;BME280;30157;55.512;37.764;2023-09-19T03:00:49;100347.59;;;9.17;93.41
44198;BME280;30157;55.512;37.764;2023-09-19T03:03:16;100493.47;;;10.02;93.43
44198;BME280;30157;55.512;37.764;2023-09-19T03:05:42;100435.31;;;9.75;93.61
44198;BME280;30157;55.512;37.764;2023-09-19T03:08:14;100444.84;;;9.75;93.68
44198;BME280;30157;55.512;37.764;2023-09-19T03:10:46;100432.72;;;9.74;93.59
44198;BME280;30157;55.512;37.764;2023-09-19T03:13:12;100398.91;;;9.58;93.74
44198;BME280;30157;55.512;37.764;2023-09-19T03:15:41;100464.75;;;9.81;93.85
44198;BME280;30157;55.512;37.764;2023-09-19T03:18:10;100377.13;;;9.39;93.99
44198;BME280;30157;55.512;37.764;2023-09-19T03:20:35;100445.69;;;9.75;94.25
44198;BME280;30157;55.512;37.764;2023-09-19T03:23:01;100466.66;;;10.00;93.89
44198;BME280;30157;55.512;37.764;2023-09-19T03:25:28;100483.16;;;10.12;93.48
44198;BME280;30157;55.512;37.764;2023-09-19T03:27:56;100468.38;;;10.03;93.26
44198;BME280;30157;55.512;37.764;2023-09-19T03:30:24;100388.47;;;9.49;93.36
44198;BME280;30157;55.512;37.764;2023-09-19T03:32:50;100462.28;;;9.96;93.16
44198;BME280;30157;55.512;37.764;2023-09-19T03:35:17;100392.81;;;9.55;93.30
44198;BME280;30157;55.512;37.764;2023-09-19T03:37:45;100424.03;;;9.70;92.96
44198;BME280;30157;55.512;37.764;2023-09-19T03:40:11;100486.66;;;10.15;93.27
44198;BME280;30157;55.512;37.764;2023-09-19T03:42:41;100458.81;;;9.96;92.88
44198;BME280;30157;55.512;37.764;2023-09-19T03:45:10;100358.13;;;9.37;93.26
44198;BME280;30157;55.512;37.764;2023-09-19T03:47:48;100471.94;;;10.14;92.92
44198;BME280;30157;55.512;37.764;2023-09-19T03:50:16;100378.97;;;9.51;92.87
44198;BME280;30157;55.512;37.764;2023-09-19T03:52:44;100473.63;;;10.09;93.36
44198;BME280;30157;55.512;37.764;2023-09-19T03:55:10;100465.84;;;10.09;92.73
44198;BME280;30157;55.512;37.764;2023-09-19T03:57:37;100457.16;;;10.02;93.09
44198;BME280;30157;55.512;37.764;2023-09-19T04:00:04;100473.66;;;10.14;93.07
44198;BME280;30157;55.512;37.764;2023-09-19T04:02:39;100476.28;;;10.20;93.04
44198;BME280;30157;55.512;37.764;2023-09-19T04:05:05;100405.97;;;9.80;92.78
44198;BME280;30157;55.512;37.764;2023-09-19T04:07:31;100473.66;;;10.14;92.39
44198;BME280;30157;55.512;37.764;2023-09-19T04:09:57;100471.09;;;10.15;92.72
44198;BME280;30157;55.512;37.764;2023-09-19T04:12:22;100391.16;;;9.63;92.84
44198;BME280;30157;55.512;37.764;2023-09-19T04:14:48;100457.19;;;10.07;92.93
44198;BME280;30157;55.512;37.764;2023-09-19T04:17:16;100467.59;;;10.08;93.16
44198;BME280;30157;55.512;37.764;2023-09-19T04:19:42;100454.63;;;10.08;93.09
44198;BME280;30157;55.512;37.764;2023-09-19T04:22:07;100478.91;;;10.23;92.99
44198;BME280;30157;55.512;37.764;2023-09-19T04:24:35;100403.38;;;9.81;92.82
44198;BME280;30157;55.512;37.764;2023-09-19T04:27:00;100459.00;;;10.19;92.15
44198;BME280;30157;55.512;37.764;2023-09-19T04:29:27;100462.47;;;10.18;92.37
44198;BME280;30157;55.512;37.764;2023-09-19T04:31:55;100470.28;;;10.24;92.36
44198;BME280;30157;55.512;37.764;2023-09-19T04:34:23;100472.00;;;10.23;92.43
44198;BME280;30157;55.512;37.764;2023-09-19T04:36:50;100472.00;;;10.22;92.50
44198;BME280;30157;55.512;37.764;2023-09-19T04:39:16;100423.38;;;9.93;92.68
44198;BME280;30157;55.512;37.764;2023-09-19T04:41:43;100444.25;;;10.10;92.74
44198;BME280;30157;55.512;37.764;2023-09-19T04:44:11;100468.59;;;10.29;92.46
44198;BME280;30157;55.512;37.764;2023-09-19T04:46:38;100371.41;;;9.78;92.47
44198;BME280;30157;55.512;37.764;2023-09-19T04:49:04;100378.34;;;9.82;92.65
44198;BME280;30157;55.512;37.764;2023-09-19T04:51:29;100453.00;;;10.29;91.82
44198;BME280;30157;55.512;37.764;2023-09-19T04:54:00;100464.41;;;10.48;91.50
44198;BME280;30157;55.512;37.764;2023-09-19T04:56:27;100401.06;;;10.23;91.51
44198;BME280;30157;55.512;37.764;2023-09-19T04:58:54;100417.59;;;10.33;91.32
44198;BME280;30157;55.512;37.764;2023-09-19T05:01:21;100432.41;;;10.48;91.57
44198;BME280;30157;55.512;37.764;2023-09-19T05:03:48;100421.13;;;10.47;91.29
44198;BME280;30157;55.512;37.764;2023-09-19T05:06:19;100448.09;;;10.72;91.04
44198;BME280;30157;55.512;37.764;2023-09-19T05:08:49;100452.47;;;10.81;91.12
44198;BME280;30157;55.512;37.764;2023-09-19T05:11:20;100449.03;;;10.88;90.86
44198;BME280;30157;55.512;37.764;2023-09-19T05:13:48;100406.59;;;10.77;90.54
44198;BME280;30157;55.512;37.764;2023-09-19T05:16:16;100429.19;;;11.06;90.50
44198;BME280;30157;55.512;37.764;2023-09-19T05:18:42;100415.31;;;11.12;90.32
44198;BME280;30157;55.512;37.764;2023-09-19T05:21:08;100402.41;;;11.36;89.28
44198;BME280;30157;55.512;37.764;2023-09-19T05:23:34;100422.34;;;11.56;88.46
44198;BME280;30157;55.512;37.764;2023-09-19T05:26:01;100411.91;;;11.48;87.84
44198;BME280;30157;55.512;37.764;2023-09-19T05:28:28;100356.44;;;11.07;88.23
44198;BME280;30157;55.512;37.764;2023-09-19T05:30:53;100441.41;;;11.63;88.30
44198;BME280;30157;55.512;37.764;2023-09-19T05:33:20;100419.75;;;11.65;88.23
44198;BME280;30157;55.512;37.764;2023-09-19T05:35:48;100393.75;;;11.51;88.38
44198;BME280;30157;55.512;37.764;2023-09-19T05:38:14;100333.09;;;11.24;87.33
44198;BME280;30157;55.512;37.764;2023-09-19T05:40:45;100431.91;;;12.02;86.82
44198;BME280;30157;55.512;37.764;2023-09-19T05:43:11;100418.88;;;11.85;87.13
44198;BME280;30157;55.512;37.764;2023-09-19T05:45:37;100384.22;;;11.70;87.11
44198;BME280;30157;55.512;37.764;2023-09-19T05:48:10;100437.97;;;11.98;87.41
44198;BME280;30157;55.512;37.764;2023-09-19T05:50:37;100372.94;;;11.84;86.95
44198;BME280;30157;55.512;37.764;2023-09-19T05:53:04;100432.72;;;12.36;86.15
44198;BME280;30157;55.512;37.764;2023-09-19T05:55:31;100417.94;;;12.38;85.94
44198;BME280;30157;55.512;37.764;2023-09-19T05:57:57;100411.28;;;13.57;83.67
44198;BME280;30157;55.512;37.764;2023-09-19T06:00:23;100428.69;;;13.61;81.24
44198;BME280;30157;55.512;37.764;2023-09-19T06:02:53;100411.97;;;13.82;81.85
44198;BME280;30157;55.512;37.764;2023-09-19T06:05:20;100356.44;;;15.16;74.71
44198;BME280;30157;55.512;37.764;2023-09-19T06:07:47;100421.72;;;15.81;73.47
44198;BME280;30157;55.512;37.764;2023-09-19T06:10:13;100406.72;;;16.38;73.00
44198;BME280;30157;55.512;37.764;2023-09-19T06:12:44;100423.38;;;17.21;69.96
44198;BME280;30157;55.512;37.764;2023-09-19T06:15:12;100416.03;;;17.73;68.11
44198;BME280;30157;55.512;37.764;2023-09-19T06:17:54;100414.84;;;18.20;62.32
44198;BME280;30157;55.512;37.764;2023-09-19T06:20:25;100409.66;;;18.81;64.00
44198;BME280;30157;55.512;37.764;2023-09-19T06:22:52;100390.13;;;18.90;60.18
44198;BME280;30157;55.512;37.764;2023-09-19T06:25:18;100379.53;;;19.21;58.20
44198;BME280;30157;55.512;37.764;2023-09-19T06:27:46;100392.13;;;19.65;59.06
44198;BME280;30157;55.512;37.764;2023-09-19T06:30:13;100386.25;;;19.30;60.03
44198;BME280;30157;55.512;37.764;2023-09-19T06:32:43;100396.09;;;18.65;61.78
44198;BME280;30157;55.512;37.764;2023-09-19T06:35:13;100337.28;;;17.73;63.09
44198;BME280;30157;55.512;37.764;2023-09-19T06:37:40;100405.66;;;18.03;62.59
44198;BME280;30157;55.512;37.764;2023-09-19T06:42:34;100405.03;;;18.26;62.12
44198;BME280;30157;55.512;37.764;2023-09-19T06:45:04;100402.41;;;18.89;60.78
44198;BME280;30157;55.512;37.764;2023-09-19T06:47:31;100342.94;;;19.40;58.96
44198;BME280;30157;55.512;37.764;2023-09-19T06:49:57;100406.22;;;20.41;57.38
44198;BME280;30157;55.512;37.764;2023-09-19T06:52:23;100409.91;;;21.08;55.21
44198;BME280;30157;55.512;37.764;2023-09-19T06:54:49;100385.13;;;21.77;52.43
44198;BME280;30157;55.512;37.764;2023-09-19T06:57:16;100373.44;;;21.40;51.88
44198;BME280;30157;55.512;37.764;2023-09-19T06:59:42;100376.47;;;20.14;56.34
44198;BME280;30157;55.512;37.764;2023-09-19T07:02:07;100372.59;;;19.19;57.92
44198;BME280;30157;55.512;37.764;2023-09-19T07:04:34;100380.50;;;18.27;59.78
44198;BME280;30157;55.512;37.764;2023-09-19T07:07:00;100396.66;;;17.41;63.11
44198;BME280;30157;55.512;37.764;2023-09-19T07:09:25;100382.69;;;16.61;65.64
44198;BME280;30157;55.512;37.764;2023-09-19T07:11:54;100285.91;;;15.64;67.36
44198;BME280;30157;55.512;37.764;2023-09-19T07:14:20;100389.88;;;16.04;68.63
44198;BME280;30157;55.512;37.764;2023-09-19T07:16:47;100310.00;;;15.32;69.46
44198;BME280;30157;55.512;37.764;2023-09-19T07:19:13;100191.41;;;14.25;70.87
44198;BME280;30157;55.512;37.764;2023-09-19T07:21:40;100391.19;;;15.22;72.31
44198;BME280;30157;55.512;37.764;2023-09-19T07:24:08;100383.50;;;15.11;72.49
44198;BME280;30157;55.512;37.764;2023-09-19T07:26:34;100364.78;;;14.82;73.70
44198;BME280;30157;55.512;37.764;2023-09-19T07:29:04;100402.72;;;15.10;73.57
44198;BME280;30157;55.512;37.764;2023-09-19T07:31:30;100401.78;;;15.13;73.44
44198;BME280;30157;55.512;37.764;2023-09-19T07:33:57;100393.03;;;15.16;73.70
44198;BME280;30157;55.512;37.764;2023-09-19T07:36:23;100367.00;;;15.09;73.89
44198;BME280;30157;55.512;37.764;2023-09-19T07:38:50;100314.31;;;14.76;73.54
44198;BME280;30157;55.512;37.764;2023-09-19T07:41:17;100386.53;;;15.44;73.32
44198;BME280;30157;55.512;37.764;2023-09-19T07:43:43;100407.94;;;15.67;73.05
44198;BME280;30157;55.512;37.764;2023-09-19T07:46:10;100412.88;;;15.87;72.67
44198;BME280;30157;55.512;37.764;2023-09-19T07:48:38;100318.47;;;15.48;72.32
44198;BME280;30157;55.512;37.764;2023-09-19T07:51:05;100316.38;;;15.67;72.11
44198;BME280;30157;55.512;37.764;2023-09-19T07:53:33;100374.03;;;16.12;71.78
44198;BME280;30157;55.512;37.764;2023-09-19T07:56:07;100384.19;;;16.31;71.25
44198;BME280;30157;55.512;37.764;2023-09-19T07:58:33;100398.06;;;16.34;70.86
44198;BME280;30157;55.512;37.764;2023-09-19T08:01:06;100301.22;;;15.87;71.38
44198;BME280;30157;55.512;37.764;2023-09-19T08:03:33;100268.28;;;15.72;70.52
44198;BME280;30157;55.512;37.764;2023-09-19T08:06:01;100363.09;;;16.37;70.74
44198;BME280;30157;55.512;37.764;2023-09-19T08:08:27;100166.94;;;15.38;70.55
44198;BME280;30157;55.512;37.764;2023-09-19T08:10:54;100361.31;;;16.79;69.89
44198;BME280;30157;55.512;37.764;2023-09-19T08:13:23;100352.56;;;16.80;69.66
44198;BME280;30157;55.512;37.764;2023-09-19T08:15:50;100277.19;;;16.53;69.79
44198;BME280;30157;55.512;37.764;2023-09-19T08:18:16;100290.81;;;16.69;69.03
44198;BME280;30157;55.512;37.764;2023-09-19T08:20:43;100326.03;;;16.96;68.74
44198;BME280;30157;55.512;37.764;2023-09-19T08:23:11;100345.03;;;17.43;68.16
44198;BME280;30157;55.512;37.764;2023-09-19T08:25:37;100323.41;;;17.68;66.22
44198;BME280;30157;55.512;37.764;2023-09-19T08:28:04;100341.09;;;17.94;66.04
44198;BME280;30157;55.512;37.764;2023-09-19T08:30:34;100331.78;;;18.47;64.61
44198;BME280;30157;55.512;37.764;2023-09-19T08:33:00;100323.72;;;19.90;59.83
44198;BME280;30157;55.512;37.764;2023-09-19T08:35:27;100353.78;;;21.47;56.87
44198;BME280;30157;55.512;37.764;2023-09-19T08:37:53;100344.31;;;21.64;55.32
44198;BME280;30157;55.512;37.764;2023-09-19T08:40:21;100344.56;;;21.99;54.85
44198;BME280;30157;55.512;37.764;2023-09-19T08:42:55;100343.50;;;23.00;51.53
44198;BME280;30157;55.512;37.764;2023-09-19T08:45:22;100338.47;;;23.32;49.54
44198;BME280;30157;55.512;37.764;2023-09-19T08:50:31;100332.38;;;24.00;48.58
44198;BME280;30157;55.512;37.764;2023-09-19T08:53:09;100324.47;;;24.16;46.80
44198;BME280;30157;55.512;37.764;2023-09-19T08:55:37;100301.19;;;23.88;48.05
44198;BME280;30157;55.512;37.764;2023-09-19T08:58:10;100320.53;;;24.07;48.06
44198;BME280;30157;55.512;37.764;2023-09-19T09:00:37;100317.16;;;24.37;47.85
44198;BME280;30157;55.512;37.764;2023-09-19T09:03:09;100325.53;;;24.29;48.10
44198;BME280;30157;55.512;37.764;2023-09-19T09:05:36;100332.50;;;24.14;47.75
44198;BME280;30157;55.512;37.764;2023-09-19T09:08:06;100308.56;;;24.16;47.78
44198;BME280;30157;55.512;37.764;2023-09-19T09:10:33;100323.97;;;24.25;47.60
44198;BME280;30157;55.512;37.764;2023-09-19T09:12:59;100291.13;;;24.28;47.56
44198;BME280;30157;55.512;37.764;2023-09-19T09:15:25;100328.78;;;25.14;46.59
44198;BME280;30157;55.512;37.764;2023-09-19T09:17:52;100303.50;;;25.39;45.58
44198;BME280;30157;55.512;37.764;2023-09-19T09:20:22;100295.59;;;24.91;46.36
44198;BME280;30157;55.512;37.764;2023-09-19T09:22:56;100287.09;;;25.16;45.96
44198;BME280;30157;55.512;37.764;2023-09-19T09:28:20;100238.94;;;24.44;46.49
44198;BME280;30157;55.512;37.764;2023-09-19T09:30:46;100306.22;;;23.59;48.93
44198;BME280;30157;55.512;37.764;2023-09-19T09:33:13;100290.25;;;23.25;50.19
44198;BME280;30157;55.512;37.764;2023-09-19T09:35:51;100298.19;;;23.43;50.24
44198;BME280;30157;55.512;37.764;2023-09-19T09:38:24;100242.25;;;23.14;49.54
44198;BME280;30157;55.512;37.764;2023-09-19T09:40:58;100310.09;;;23.34;49.50
44198;BME280;30157;55.512;37.764;2023-09-19T09:43:45;100293.09;;;22.47;51.33
44198;BME280;30157;55.512;37.764;2023-09-19T09:46:17;100282.59;;;21.24;54.80
44198;BME280;30157;55.512;37.764;2023-09-19T09:49:05;100296.69;;;21.45;54.58
44198;BME280;30157;55.512;37.764;2023-09-19T09:51:58;100283.41;;;21.26;55.44
44198;BME280;30157;55.512;37.764;2023-09-19T09:54:26;100269.00;;;21.12;55.43
44198;BME280;30157;55.512;37.764;2023-09-19T09:57:10;100213.91;;;20.60;55.84
44198;BME280;30157;55.512;37.764;2023-09-19T09:59:54;100286.25;;;20.99;56.38
44198;BME280;30157;55.512;37.764;2023-09-19T10:02:28;100189.69;;;20.28;56.65
44198;BME280;30157;55.512;37.764;2023-09-19T10:05:19;100272.69;;;20.86;56.63
44198;BME280;30157;55.512;37.764;2023-09-19T10:07:46;100286.50;;;21.15;56.40
44198;BME280;30157;55.512;37.764;2023-09-19T10:10:34;100279.34;;;21.60;55.84
44198;BME280;30157;55.512;37.764;2023-09-19T10:13:25;100259.19;;;22.18;54.31
44198;BME280;30157;55.512;37.764;2023-09-19T10:15:53;100092.09;;;21.35;53.40
44198;BME280;30157;55.512;37.764;2023-09-19T10:18:22;100248.56;;;22.75;53.11
44198;BME280;30157;55.512;37.764;2023-09-19T10:20:49;100254.38;;;23.20;51.85
44198;BME280;30157;55.512;37.764;2023-09-19T10:23:18;100272.66;;;23.24;52.00
44198;BME280;30157;55.512;37.764;2023-09-19T10:25:52;100267.63;;;23.71;50.67
44198;BME280;30157;55.512;37.764;2023-09-19T10:28:19;100218.13;;;23.89;50.48
44198;BME280;30157;55.512;37.764;2023-09-19T10:30:49;100211.06;;;24.21;49.16
44198;BME280;30157;55.512;37.764;2023-09-19T10:33:17;100170.63;;;23.68;49.60
44198;BME280;30157;55.512;37.764;2023-09-19T10:35:50;100235.69;;;24.07;49.69
44198;BME280;30157;55.512;37.764;2023-09-19T10:38:27;100226.28;;;24.18;49.55
44198;BME280;30157;55.512;37.764;2023-09-19T10:40:56;100231.69;;;24.32;49.49
44198;BME280;30157;55.512;37.764;2023-09-19T10:43:30;100230.47;;;24.22;48.89
44198;BME280;30157;55.512;37.764;2023-09-19T10:46:01;100222.78;;;23.83;49.98
44198;BME280;30157;55.512;37.764;2023-09-19T10:48:29;100179.94;;;24.09;49.21
44198;BME280;30157;55.512;37.764;2023-09-19T10:51:24;100228.59;;;24.56;49.08
44198;BME280;30157;55.512;37.764;2023-09-19T10:53:56;100223.63;;;24.81;48.36
44198;BME280;30157;55.512;37.764;2023-09-19T10:56:36;100159.16;;;24.79;47.68
44198;BME280;30157;55.512;37.764;2023-09-19T11:01:55;100204.72;;;23.92;49.73
44198;BME280;30157;55.512;37.764;2023-09-19T11:04:33;100212.38;;;23.29;51.00
44198;BME280;30157;55.512;37.764;2023-09-19T11:09:48;100221.38;;;23.08;51.91
44198;BME280;30157;55.512;37.764;2023-09-19T11:26:50;100193.72;;;24.94;48.77
44198;BME280;30157;55.512;37.764;2023-09-19T11:29:27;100174.78;;;25.00;47.33
44198;BME280;30157;55.512;37.764;2023-09-19T11:31:55;100164.94;;;24.56;48.77
44198;BME280;30157;55.512;37.764;2023-09-19T11:37:03;100217.69;;;24.92;48.66
44198;BME280;30157;55.512;37.764;2023-09-19T11:40:07;100202.47;;;25.41;47.62
44198;BME280;30157;55.512;37.764;2023-09-19T11:42:46;100111.38;;;25.39;47.03
44198;BME280;30157;55.512;37.764;2023-09-19T11:48:18;100201.44;;;25.72;47.06
44198;BME280;30157;55.512;37.764;2023-09-19T11:50:45;100173.59;;;26.07;45.72
44198;BME280;30157;55.512;37.764;2023-09-19T11:53:13;100199.34;;;26.75;45.08
44198;BME280;30157;55.512;37.764;2023-09-19T11:55:43;100205.69;;;26.45;45.07
44198;BME280;30157;55.512;37.764;2023-09-19T11:58:20;100171.66;;;26.23;45.17
44198;BME280;30157;55.512;37.764;2023-09-19T12:00:54;100177.41;;;26.44;45.47
44198;BME280;30157;55.512;37.764;2023-09-19T12:03:21;100184.41;;;27.26;43.67
44198;BME280;30157;55.512;37.764;2023-09-19T12:05:48;100157.31;;;26.93;43.20
44198;BME280;30157;55.512;37.764;2023-09-19T12:08:15;100034.03;;;25.58;44.34
44198;BME280;30157;55.512;37.764;2023-09-19T12:10:47;100134.63;;;26.20;44.98
44198;BME280;30157;55.512;37.764;2023-09-19T12:13:19;100058.00;;;25.98;43.75
44198;BME280;30157;55.512;37.764;2023-09-19T12:15:46;100185.47;;;27.10;43.84
44198;BME280;30157;55.512;37.764;2023-09-19T12:18:28;100165.63;;;27.02;43.72
44198;BME280;30157;55.512;37.764;2023-09-19T12:20:55;100142.84;;;27.62;42.58
44198;BME280;30157;55.512;37.764;2023-09-19T12:23:23;100130.41;;;27.87;42.00
44198;BME280;30157;55.512;37.764;2023-09-19T12:25:52;100142.41;;;27.68;41.82
44198;BME280;30157;55.512;37.764;2023-09-19T12:28:26;100157.66;;;27.27;42.90
44198;BME280;30157;55.512;37.764;2023-09-19T12:30:53;100149.00;;;27.75;42.35
44198;BME280;30157;55.512;37.764;2023-09-19T12:33:21;100159.69;;;27.62;42.39
44198;BME280;30157;55.512;37.764;2023-09-19T12:35:52;100157.78;;;27.64;42.56
44198;BME280;30157;55.512;37.764;2023-09-19T12:38:25;100158.94;;;27.22;43.67
44198;BME280;30157;55.512;37.764;2023-09-19T12:40:57;100110.78;;;26.86;43.73
44198;BME280;30157;55.512;37.764;2023-09-19T12:43:28;100143.03;;;27.07;43.30
44198;BME280;30157;55.512;37.764;2023-09-19T12:45:54;100137.53;;;27.36;43.46
44198;BME280;30157;55.512;37.764;2023-09-19T12:51:02;100151.78;;;27.35;43.23
44198;BME280;30157;55.512;37.764;2023-09-19T12:53:40;100059.38;;;26.05;44.78
44198;BME280;30157;55.512;37.764;2023-09-19T12:56:09;100077.78;;;26.61;44.13
44198;BME280;30157;55.512;37.764;2023-09-19T12:58:55;100139.16;;;27.39;43.56
44198;BME280;30157;55.512;37.764;2023-09-19T13:01:23;100124.50;;;27.06;43.65
44198;BME280;30157;55.512;37.764;2023-09-19T13:06:49;100105.53;;;26.72;44.76
44198;BME280;30157;55.512;37.764;2023-09-19T13:09:16;100095.88;;;26.83;44.10
44198;BME280;30157;55.512;37.764;2023-09-19T13:11:43;100097.16;;;25.96;46.02
44198;BME280;30157;55.512;37.764;2023-09-19T13:14:17;100052.94;;;25.39;46.71
44198;BME280;30157;55.512;37.764;2023-09-19T13:19:49;100092.91;;;25.79;46.54
44198;BME280;30157;55.512;37.764;2023-09-19T13:25:14;100129.75;;;25.85;47.42
44198;BME280;30157;55.512;37.764;2023-09-19T13:27:54;100123.41;;;25.44;47.87
44198;BME280;30157;55.512;37.764;2023-09-19T13:30:26;100108.19;;;24.89;48.64
44198;BME280;30157;55.512;37.764;2023-09-19T13:33:03;100096.09;;;24.38;50.41
44198;BME280;30157;55.512;37.764;2023-09-19T13:35:29;100096.69;;;23.79;51.89
44198;BME280;30157;55.512;37.764;2023-09-19T13:37:55;100105.94;;;23.23;53.58
44198;BME280;30157;55.512;37.764;2023-09-19T13:40:21;100118.56;;;22.82;55.21
44198;BME280;30157;55.512;37.764;2023-09-19T13:42:46;100123.56;;;22.54;56.63
44198;BME280;30157;55.512;37.764;2023-09-19T13:45:12;100089.47;;;22.11;57.26
44198;BME280;30157;55.512;37.764;2023-09-19T13:47:41;100081.56;;;21.92;58.04
44198;BME280;30157;55.512;37.764;2023-09-19T13:50:07;100109.13;;;21.86;58.97
44198;BME280;30157;55.512;37.764;2023-09-19T13:52:34;100056.69;;;21.39;59.52
44198;BME280;30157;55.512;37.764;2023-09-19T13:54:59;100106.13;;;21.56;60.53